createdAt,value
2022-10-22T00:00:20.624Z,6.80
2022-10-22T00:02:53.762Z,5.28
2022-10-22T00:05:26.804Z,8.28
2022-10-22T00:07:59.754Z,6.35
2022-10-22T00:10:33.304Z,6.07
2022-10-22T00:13:07.159Z,5.50
2022-10-22T00:15:42.009Z,6.58
2022-10-22T00:20:47.838Z,5.90
2022-10-22T00:23:20.789Z,8.08
2022-10-22T00:25:56.175Z,8.35
2022-10-22T00:28:29.364Z,7.53
2022-10-22T00:31:03.780Z,8.23
2022-10-22T00:33:37.698Z,6.15
2022-10-22T00:36:11.229Z,6.33
2022-10-22T00:38:45.075Z,7.33
2022-10-22T00:41:18.345Z,9.65
2022-10-22T00:44:04.799Z,5.37
2022-10-22T00:46:38.255Z,7.67
2022-10-22T00:49:11.472Z,7.10
2022-10-22T00:51:44.304Z,6.62
2022-10-22T00:54:17.259Z,6.90
2022-10-22T00:56:50.222Z,7.12
2022-10-22T00:59:23.636Z,9.68
2022-10-22T01:01:56.910Z,8.40
2022-10-22T01:04:29.747Z,7.87
2022-10-22T01:07:03.556Z,8.15
2022-10-22T01:09:46.354Z,8.68
2022-10-22T01:12:43.627Z,7.87
2022-10-22T01:15:26.308Z,6.65
2022-10-22T01:18:20.973Z,6.60
2022-10-22T01:21:23.659Z,7.42
2022-10-22T01:24:27.361Z,7.03
2022-10-22T01:27:13.760Z,8.25
2022-10-22T01:29:56.626Z,7.62
2022-10-22T01:32:30.743Z,10.80
2022-10-22T01:35:09.157Z,8.18
2022-10-22T01:37:52.026Z,7.30
2022-10-22T01:40:26.822Z,9.43
2022-10-22T01:43:03.976Z,7.28
2022-10-22T01:45:51.844Z,5.80
2022-10-22T01:49:03.424Z,9.05
2022-10-22T01:51:59.060Z,7.20
2022-10-22T01:54:40.127Z,6.47
2022-10-22T01:57:44.408Z,8.60
2022-10-22T02:00:19.074Z,8.07
2022-10-22T02:03:05.370Z,9.40
2022-10-22T02:05:53.132Z,9.05
2022-10-22T02:08:32.737Z,8.83
2022-10-22T02:11:06.708Z,6.85
2022-10-22T02:21:23.562Z,9.10
2022-10-22T02:23:56.551Z,7.35
2022-10-22T02:26:48.152Z,9.15
2022-10-22T02:29:28.489Z,9.45
2022-10-22T02:32:03.207Z,7.58
2022-10-22T02:34:36.380Z,11.70
2022-10-22T02:37:10.589Z,8.40
2022-10-22T02:39:44.344Z,6.72
2022-10-22T02:42:18.525Z,9.73
2022-10-22T02:44:52.423Z,9.25
2022-10-22T02:47:25.564Z,10.58
2022-10-22T02:49:58.373Z,10.45
2022-10-22T02:52:31.131Z,14.25
2022-10-22T02:55:04.558Z,17.15
2022-10-22T02:57:37.688Z,21.67
2022-10-22T03:00:12.404Z,16.17
2022-10-22T03:02:45.393Z,25.17
2022-10-22T03:05:18.448Z,18.57
2022-10-22T03:07:51.463Z,22.67
2022-10-22T03:10:24.407Z,21.55
2022-10-22T03:12:57.874Z,20.45
2022-10-22T03:15:31.439Z,22.82
2022-10-22T03:18:04.402Z,19.15
2022-10-22T03:20:37.436Z,21.93
2022-10-22T03:23:10.641Z,19.87
2022-10-22T03:25:44.809Z,28.43
2022-10-22T03:28:19.886Z,32.33
2022-10-22T03:30:53.173Z,26.95
2022-10-22T03:33:26.990Z,21.00
2022-10-22T03:35:59.895Z,16.23
2022-10-22T03:38:33.931Z,15.50
2022-10-22T03:41:06.891Z,19.92
2022-10-22T03:43:41.387Z,16.53
2022-10-22T03:46:14.711Z,14.87
2022-10-22T03:48:47.922Z,18.62
2022-10-22T03:51:20.878Z,20.53
2022-10-22T03:53:53.962Z,17.53
2022-10-22T03:56:27.920Z,15.00
2022-10-22T03:59:02.193Z,14.75
2022-10-22T04:01:35.905Z,17.77
2022-10-22T04:04:09.545Z,12.88
2022-10-22T04:06:42.894Z,10.50
2022-10-22T04:09:16.413Z,12.85
2022-10-22T04:11:49.133Z,11.40
2022-10-22T04:14:22.279Z,10.40
2022-10-22T04:16:56.029Z,10.70
2022-10-22T04:19:29.576Z,15.35
2022-10-22T04:22:02.785Z,14.23
2022-10-22T04:24:36.657Z,13.53
2022-10-22T04:27:09.898Z,14.87
2022-10-22T04:29:42.724Z,12.50
2022-10-22T04:32:15.456Z,16.07
2022-10-22T04:34:48.603Z,12.45
2022-10-22T04:37:23.019Z,12.73
2022-10-22T04:39:58.156Z,18.07
2022-10-22T04:42:31.755Z,14.33
2022-10-22T04:45:04.949Z,11.63
2022-10-22T04:47:38.055Z,11.65
2022-10-22T04:50:11.466Z,13.17
2022-10-22T04:52:44.427Z,11.70
2022-10-22T04:55:17.755Z,22.40
2022-10-22T04:57:50.777Z,20.57
2022-10-22T05:00:23.716Z,21.82
2022-10-22T05:05:30.299Z,42.30
2022-10-22T05:08:04.183Z,34.58
2022-10-22T05:10:37.387Z,40.13
2022-10-22T05:13:10.388Z,29.05
2022-10-22T05:15:43.274Z,32.95
2022-10-22T05:18:18.996Z,31.85
2022-10-22T05:20:50.675Z,40.48
2022-10-22T05:23:23.797Z,33.88
2022-10-22T05:25:56.558Z,25.45
2022-10-22T05:28:29.657Z,14.93
2022-10-22T05:31:02.934Z,14.40
2022-10-22T05:33:37.330Z,11.50
2022-10-22T05:36:17.529Z,12.20
2022-10-22T05:38:52.470Z,18.00
2022-10-22T05:41:28.639Z,13.85
2022-10-22T05:44:02.188Z,12.23
2022-10-22T05:46:37.914Z,9.40
2022-10-22T05:49:15.527Z,10.68
2022-10-22T05:51:49.352Z,10.18
2022-10-22T05:54:23.139Z,13.28
2022-10-22T05:56:56.409Z,11.20
2022-10-22T05:59:29.779Z,11.22
2022-10-22T06:02:02.576Z,10.63
2022-10-22T06:04:35.747Z,12.78
2022-10-22T06:07:10.688Z,14.05
2022-10-22T06:09:44.111Z,11.20
2022-10-22T06:12:18.038Z,15.68
2022-10-22T06:14:51.068Z,11.48
2022-10-22T06:17:25.577Z,10.48
2022-10-22T06:19:58.664Z,9.08
2022-10-22T06:22:32.290Z,13.08
2022-10-22T06:25:08.451Z,12.80
2022-10-22T06:27:41.519Z,10.63
2022-10-22T06:30:15.121Z,8.40
2022-10-22T06:32:48.320Z,8.73
2022-10-22T06:35:21.658Z,12.03
2022-10-22T06:37:54.551Z,10.32
2022-10-22T06:40:27.539Z,9.18
2022-10-22T06:43:02.575Z,11.35
2022-10-22T06:45:37.033Z,10.18
2022-10-22T06:48:09.935Z,7.97
2022-10-22T06:50:44.303Z,8.33
2022-10-22T06:53:17.366Z,9.80
2022-10-22T06:55:50.975Z,8.08
2022-10-22T06:58:23.851Z,7.22
2022-10-22T07:01:10.065Z,7.92
2022-10-22T07:03:43.706Z,7.97
2022-10-22T07:08:50.141Z,8.23
2022-10-22T07:11:33.546Z,8.08
2022-10-22T07:14:06.205Z,9.10
2022-10-22T07:16:41.659Z,7.05
2022-10-22T07:19:14.956Z,7.00
2022-10-22T07:21:48.119Z,8.15
2022-10-22T07:24:21.204Z,7.40
2022-10-22T07:26:54.174Z,7.95
2022-10-22T07:29:27.190Z,5.60
2022-10-22T07:32:01.500Z,6.33
2022-10-22T07:34:34.465Z,6.40
2022-10-22T07:37:09.230Z,5.87
2022-10-22T07:39:42.159Z,5.35
2022-10-22T07:42:15.020Z,7.53
2022-10-22T07:44:47.871Z,9.00
2022-10-22T07:47:20.701Z,8.23
2022-10-22T07:49:53.558Z,10.05
2022-10-22T07:52:26.765Z,8.23
2022-10-22T07:54:59.545Z,7.25
2022-10-22T07:57:32.450Z,7.97
2022-10-22T08:00:08.572Z,7.08
2022-10-22T08:02:43.792Z,5.35
2022-10-22T08:05:18.080Z,7.05
2022-10-22T08:07:50.884Z,7.20
2022-10-22T08:10:23.973Z,6.58
2022-10-22T08:15:31.477Z,8.05
2022-10-22T08:18:04.476Z,5.40
2022-10-22T08:20:37.439Z,8.08
2022-10-22T08:23:10.758Z,5.62
2022-10-22T08:25:43.901Z,5.35
2022-10-22T08:28:19.886Z,3.62
2022-10-22T08:30:51.344Z,7.30
2022-10-22T08:33:24.340Z,3.62
2022-10-22T08:35:57.256Z,6.30
2022-10-22T08:38:31.802Z,4.90
2022-10-22T08:41:17.753Z,5.70
2022-10-22T08:44:17.476Z,7.67
2022-10-22T08:47:11.792Z,5.08
2022-10-22T08:49:45.764Z,5.75
2022-10-22T08:52:20.585Z,3.92
2022-10-22T08:54:59.746Z,3.45
2022-10-22T08:57:52.154Z,5.20
2022-10-22T09:00:34.180Z,5.45
2022-10-22T09:03:30.594Z,5.20
2022-10-22T09:06:25.774Z,4.08
2022-10-22T09:09:00.906Z,5.40
2022-10-22T09:11:41.065Z,3.92
2022-10-22T09:14:21.982Z,3.10
2022-10-22T09:17:23.664Z,5.72
2022-10-22T09:20:20.849Z,6.00
2022-10-22T09:22:58.450Z,4.25
2022-10-22T09:25:37.589Z,6.28
2022-10-22T09:28:12.446Z,3.45
2022-10-22T09:30:46.313Z,4.83
2022-10-22T09:33:28.465Z,3.72
2022-10-22T09:36:04.773Z,4.37
2022-10-22T09:38:44.283Z,3.47
2022-10-22T09:41:19.045Z,5.50
2022-10-22T09:43:53.473Z,6.37
2022-10-22T09:46:31.489Z,4.50
2022-10-22T09:49:11.727Z,9.13
2022-10-22T09:51:59.072Z,3.33
2022-10-22T09:54:42.369Z,5.78
2022-10-22T09:57:24.124Z,3.37
2022-10-22T09:59:57.867Z,8.48
2022-10-22T10:02:38.494Z,5.05
2022-10-22T10:05:07.935Z,7.53
2022-10-22T10:07:41.091Z,4.17
2022-10-22T10:10:30.285Z,7.12
2022-10-22T10:13:25.858Z,2.58
2022-10-22T10:16:44.331Z,4.72
2022-10-22T10:19:43.408Z,4.12
2022-10-22T10:22:44.104Z,4.65
2022-10-22T10:25:30.967Z,3.33
2022-10-22T10:28:35.584Z,2.35
2022-10-22T10:31:21.921Z,3.10
2022-10-22T10:34:32.800Z,2.40
2022-10-22T10:37:26.805Z,6.60
2022-10-22T10:40:22.391Z,2.90
2022-10-22T10:43:13.967Z,2.08
2022-10-22T10:49:01.999Z,3.67
2022-10-22T10:52:00.473Z,2.65
2022-10-22T10:54:52.993Z,4.08
2022-10-22T10:57:36.429Z,3.87
2022-10-22T11:00:21.388Z,6.03
2022-10-22T11:03:32.441Z,4.70
2022-10-22T11:06:20.504Z,3.05
2022-10-22T11:08:58.173Z,2.20
2022-10-22T11:11:39.722Z,1.60
2022-10-22T11:14:27.933Z,1.60
2022-10-22T11:17:08.822Z,1.95
2022-10-22T11:19:52.333Z,4.58
2022-10-22T11:22:47.265Z,3.17
2022-10-22T11:25:34.132Z,4.28
2022-10-22T11:28:36.910Z,3.20
2022-10-22T11:31:14.166Z,6.05
2022-10-22T11:34:04.689Z,2.58
2022-10-22T11:36:35.153Z,6.00
2022-10-22T11:39:08.328Z,2.47
2022-10-22T11:41:42.123Z,1.82
2022-10-22T11:44:26.224Z,3.45
2022-10-22T11:47:03.354Z,1.67
2022-10-22T11:50:02.601Z,2.83
2022-10-22T11:52:41.972Z,2.52
2022-10-22T11:55:34.286Z,2.40
2022-10-22T11:58:11.731Z,1.95
2022-10-22T12:00:49.785Z,3.67
2022-10-22T12:03:43.193Z,2.05
2022-10-22T12:06:21.288Z,3.25
2022-10-22T12:09:05.045Z,2.92
2022-10-22T12:11:45.349Z,4.50
2022-10-22T12:14:56.014Z,2.55
2022-10-22T12:17:30.431Z,5.35
2022-10-22T12:20:09.546Z,12.80
2022-10-22T12:22:42.765Z,12.28
2022-10-22T12:25:22.400Z,6.50
2022-10-22T12:27:58.933Z,5.83
2022-10-22T12:30:35.149Z,17.25
2022-10-22T12:33:11.888Z,4.50
2022-10-22T12:35:47.136Z,3.62
2022-10-22T12:38:23.917Z,2.15
2022-10-22T12:40:59.166Z,1.80
2022-10-22T12:43:33.823Z,4.08
2022-10-22T12:46:08.627Z,2.42
2022-10-22T12:48:45.231Z,3.25
2022-10-22T12:51:21.035Z,2.77
2022-10-22T12:53:57.397Z,3.35
2022-10-22T12:56:33.609Z,2.12
2022-10-22T12:59:26.030Z,3.55
2022-10-22T13:01:59.269Z,4.58
2022-10-22T13:04:39.618Z,6.53
2022-10-22T13:07:21.975Z,1.65
2022-10-22T13:10:01.312Z,3.80
2022-10-22T13:12:39.535Z,5.92
2022-10-22T13:15:31.859Z,3.02
2022-10-22T13:18:26.295Z,2.25
2022-10-22T13:21:06.123Z,6.95
2022-10-22T13:23:39.885Z,2.00
2022-10-22T13:26:18.631Z,10.32
2022-10-22T13:28:57.656Z,2.95
2022-10-22T13:31:36.322Z,2.58
2022-10-22T13:34:16.395Z,5.25
2022-10-22T13:36:47.754Z,2.98
2022-10-22T13:39:23.318Z,2.52
2022-10-22T13:41:56.148Z,4.10
2022-10-22T13:44:29.038Z,2.55
2022-10-22T13:47:01.982Z,4.45
2022-10-22T13:49:35.421Z,3.80
2022-10-22T13:52:10.372Z,3.37
2022-10-22T13:54:43.239Z,3.15
2022-10-22T13:57:16.395Z,2.90
2022-10-22T13:59:49.112Z,4.17
2022-10-22T14:02:24.590Z,6.37
2022-10-22T14:04:59.338Z,9.53
2022-10-22T14:07:32.760Z,4.70
2022-10-22T14:10:18.160Z,8.23
2022-10-22T14:12:53.435Z,6.22
2022-10-22T14:15:29.293Z,6.90
2022-10-22T14:18:03.347Z,8.58
2022-10-22T14:20:38.713Z,6.35
2022-10-22T14:23:21.285Z,7.83
2022-10-22T14:25:54.344Z,7.28
2022-10-22T14:28:27.532Z,5.00
2022-10-22T14:31:00.700Z,6.85
2022-10-22T14:33:35.224Z,8.80
2022-10-22T14:36:08.823Z,3.50
2022-10-22T14:38:42.604Z,3.27
2022-10-22T14:41:21.979Z,8.20
2022-10-22T14:43:56.070Z,9.90
2022-10-22T14:46:28.798Z,4.17
2022-10-22T14:49:03.086Z,6.08
2022-10-22T14:51:36.181Z,5.67
2022-10-22T14:54:09.223Z,9.53
2022-10-22T14:56:42.889Z,5.90
2022-10-22T14:59:15.981Z,7.92
2022-10-22T15:01:48.852Z,10.35
2022-10-22T15:04:23.621Z,9.45
2022-10-22T15:06:56.688Z,3.25
2022-10-22T15:09:31.184Z,6.75
2022-10-22T15:12:06.250Z,8.43
2022-10-22T15:14:39.259Z,5.92
2022-10-22T15:17:12.700Z,11.67
2022-10-22T15:19:46.559Z,14.10
2022-10-22T15:22:19.754Z,12.30
2022-10-22T15:24:53.909Z,11.33
2022-10-22T15:27:26.972Z,11.95
2022-10-22T15:30:00.106Z,10.45
2022-10-22T15:32:34.365Z,11.00
2022-10-22T15:35:09.006Z,15.32
2022-10-22T15:37:43.496Z,12.25
2022-10-22T15:40:16.211Z,15.98
2022-10-22T15:42:49.061Z,14.63
2022-10-22T15:45:22.686Z,13.43
2022-10-22T15:47:56.447Z,15.23
2022-10-22T15:50:30.112Z,17.52
2022-10-22T15:53:03.187Z,14.65
2022-10-22T15:55:39.193Z,14.50
2022-10-22T15:58:12.062Z,25.30
2022-10-22T16:00:45.258Z,15.15
2022-10-22T16:03:19.282Z,12.03
2022-10-22T16:05:54.766Z,8.88
2022-10-22T16:08:28.326Z,7.58
2022-10-22T16:11:04.099Z,10.53
2022-10-22T16:13:38.213Z,12.33
2022-10-22T16:16:11.497Z,8.38
2022-10-22T16:18:44.370Z,10.20
2022-10-22T16:21:18.307Z,8.97
2022-10-22T16:23:51.214Z,9.80
2022-10-22T16:26:23.970Z,8.43
2022-10-22T16:28:57.031Z,7.17
2022-10-22T16:31:31.589Z,14.45
2022-10-22T16:34:04.917Z,10.95
2022-10-22T16:36:39.834Z,9.08
2022-10-22T16:39:12.904Z,8.58
2022-10-22T16:41:47.078Z,9.48
2022-10-22T16:44:23.103Z,13.65
2022-10-22T16:46:55.989Z,11.48
2022-10-22T16:49:28.969Z,8.93
2022-10-22T16:52:04.268Z,11.73
2022-10-22T16:54:37.243Z,10.50
2022-10-22T16:57:12.004Z,12.63
2022-10-22T16:59:45.406Z,10.05
2022-10-22T17:02:21.392Z,9.35
2022-10-22T17:04:54.812Z,9.18
2022-10-22T17:07:28.031Z,10.25
2022-10-22T17:10:03.233Z,10.90
2022-10-22T17:12:36.816Z,7.92
2022-10-22T17:15:10.830Z,11.60
2022-10-22T17:17:46.984Z,8.40
2022-10-22T17:20:20.231Z,12.55
2022-10-22T17:22:53.716Z,12.03
2022-10-22T17:25:39.831Z,12.10
2022-10-22T17:28:15.441Z,12.07
2022-10-22T17:30:49.706Z,8.33
2022-10-22T17:33:23.053Z,10.90
2022-10-22T17:35:56.800Z,12.78
2022-10-22T17:38:30.106Z,8.33
2022-10-22T17:43:39.305Z,7.87
2022-10-22T17:46:19.040Z,11.30
2022-10-22T17:48:57.808Z,7.20
2022-10-22T17:51:37.926Z,6.87
2022-10-22T17:54:16.349Z,8.85
2022-10-22T17:56:49.224Z,7.55
2022-10-22T17:59:25.461Z,7.78
2022-10-22T18:02:01.533Z,8.85
2022-10-22T18:04:36.330Z,7.20
2022-10-22T18:07:09.768Z,8.45
2022-10-22T18:09:44.762Z,7.40
2022-10-22T18:12:19.763Z,11.38
2022-10-22T18:14:54.518Z,9.20
2022-10-22T18:17:27.845Z,12.78
2022-10-22T18:20:03.557Z,7.12
2022-10-22T18:22:37.138Z,9.05
2022-10-22T18:25:10.958Z,7.78
2022-10-22T18:30:19.123Z,7.78
2022-10-22T18:32:52.133Z,9.23
2022-10-22T18:35:24.905Z,7.90
2022-10-22T18:37:57.805Z,9.05
2022-10-22T18:40:30.660Z,7.30
2022-10-22T18:43:06.139Z,7.50
2022-10-22T18:45:43.980Z,5.50
2022-10-22T18:48:20.422Z,6.12
2022-10-22T18:51:03.849Z,9.13
2022-10-22T18:53:40.289Z,8.03
2022-10-22T18:56:14.636Z,8.15
2022-10-22T19:01:25.913Z,5.83
2022-10-22T19:03:59.068Z,8.10
2022-10-22T19:06:34.419Z,5.75
2022-10-22T19:09:09.401Z,5.75
2022-10-22T19:11:42.438Z,6.42
2022-10-22T19:14:18.911Z,8.40
2022-10-22T19:16:51.900Z,7.12
2022-10-22T19:19:25.297Z,6.22
2022-10-22T19:21:59.827Z,5.60
2022-10-22T19:24:32.907Z,6.87
2022-10-22T19:27:05.034Z,5.35
2022-10-22T19:29:39.013Z,5.03
2022-10-22T19:32:14.595Z,6.60
2022-10-22T19:37:20.526Z,6.30
2022-10-22T19:39:54.126Z,5.92
2022-10-22T19:42:27.092Z,6.42
2022-10-22T19:45:00.451Z,6.72
2022-10-22T19:47:34.393Z,6.55
2022-10-22T19:50:07.786Z,6.20
2022-10-22T19:55:13.848Z,6.85
2022-10-22T19:57:47.055Z,6.10
2022-10-22T20:00:19.942Z,6.75
2022-10-22T20:02:53.004Z,9.08
2022-10-22T20:05:25.907Z,7.00
2022-10-22T20:07:59.264Z,7.72
2022-10-22T20:10:33.493Z,7.80
2022-10-22T20:13:06.978Z,8.30
2022-10-22T20:15:40.272Z,6.97
2022-10-22T20:18:14.397Z,7.85
2022-10-22T20:20:47.530Z,6.72
2022-10-22T20:23:20.375Z,10.28
2022-10-22T20:25:53.333Z,8.95
2022-10-22T20:28:26.718Z,9.73
2022-10-22T20:30:59.762Z,6.62
2022-10-22T20:33:32.771Z,7.47
2022-10-22T20:36:09.769Z,6.75
2022-10-22T20:38:43.562Z,10.20
2022-10-22T20:41:23.279Z,6.33
2022-10-22T20:43:56.449Z,7.92
2022-10-22T20:46:33.948Z,6.42
2022-10-22T20:49:16.118Z,7.42
2022-10-22T20:51:48.905Z,6.05
2022-10-22T20:54:21.854Z,8.88
2022-10-22T20:56:54.815Z,9.75
2022-10-22T20:59:30.536Z,6.95
2022-10-22T21:02:03.855Z,7.78
2022-10-22T21:04:36.667Z,7.90
2022-10-22T21:07:10.629Z,8.28
2022-10-22T21:09:44.069Z,7.50
2022-10-22T21:12:17.166Z,7.58
2022-10-22T21:14:50.547Z,6.33
2022-10-22T21:17:23.364Z,11.63
2022-10-22T21:19:57.858Z,8.00
2022-10-22T21:22:30.760Z,7.70
2022-10-22T21:25:03.733Z,8.98
2022-10-22T21:27:36.666Z,9.53
2022-10-22T21:30:11.263Z,5.87
2022-10-22T21:32:45.136Z,6.95
2022-10-22T21:35:18.584Z,7.00
2022-10-22T21:37:51.376Z,10.30
2022-10-22T21:40:25.131Z,6.58
2022-10-22T21:42:58.020Z,8.68
2022-10-22T21:45:30.852Z,9.03
2022-10-22T21:48:04.427Z,6.67
2022-10-22T21:50:42.872Z,9.28
2022-10-22T21:53:15.968Z,7.62
2022-10-22T21:55:49.215Z,8.83
2022-10-22T21:58:22.635Z,7.33
2022-10-22T22:01:00.733Z,9.63
2022-10-22T22:03:33.651Z,7.58
2022-10-22T22:06:08.124Z,11.93
2022-10-22T22:08:41.426Z,7.65
2022-10-22T22:11:18.788Z,6.80
2022-10-22T22:13:54.316Z,9.48
2022-10-22T22:16:33.510Z,7.10
2022-10-22T22:19:09.640Z,6.37
2022-10-22T22:21:42.986Z,5.60
2022-10-22T22:24:15.959Z,6.70
2022-10-22T22:26:50.402Z,6.03
2022-10-22T22:29:23.376Z,10.93
2022-10-22T22:31:57.314Z,8.50
2022-10-22T22:34:30.398Z,6.75
2022-10-22T22:37:03.883Z,11.95
2022-10-22T22:39:36.962Z,6.83
2022-10-22T22:42:09.911Z,8.33
2022-10-22T22:44:43.156Z,6.77
2022-10-22T22:47:15.909Z,7.62
2022-10-22T22:49:49.186Z,7.37
2022-10-22T22:52:22.229Z,5.97
2022-10-22T22:54:55.230Z,7.30
2022-10-22T22:57:28.170Z,6.65
2022-10-22T23:00:00.955Z,5.87
2022-10-22T23:02:34.279Z,4.92
2022-10-22T23:05:07.817Z,7.45
2022-10-22T23:07:40.607Z,9.33
2022-10-22T23:10:15.249Z,6.12
2022-10-22T23:12:48.057Z,4.90
2022-10-22T23:15:22.991Z,6.50
2022-10-22T23:17:57.337Z,5.92
2022-10-22T23:20:30.301Z,6.92
2022-10-22T23:23:05.028Z,7.42
2022-10-22T23:25:37.913Z,6.22
2022-10-22T23:28:10.553Z,6.78
2022-10-22T23:30:45.887Z,7.40
2022-10-22T23:33:19.804Z,6.03
2022-10-22T23:35:52.867Z,6.30
2022-10-22T23:38:25.722Z,6.92
2022-10-22T23:40:59.304Z,5.62
2022-10-22T23:43:34.565Z,7.92
2022-10-22T23:46:11.062Z,6.00
2022-10-22T23:48:44.332Z,6.95
2022-10-22T23:51:19.109Z,7.53
2022-10-22T23:53:55.964Z,6.78
2022-10-22T23:56:30.047Z,7.20
2022-10-22T23:59:03.558Z,6.25
